Yenisei River — V7AU8 — position and weather

sailwx.info

Track history (hours):
 
Tides and Currents Weather Stations Pressure Air Temp Water Temp Dewpoint Dewpoint Depression Visibility Wind Speed Wind Dir Waves Ship Positions

Yenisei River

Last reported at 2018-Apr-20 00:37 UTC. Time now 2018-Apr-24 10:50 UTC.
Position N 28°07' W 016°14'.

Length 288 m; draft 9.6 m.

Type: Ship. MMSI: 538005072.

Date/timePositionNaut miles runAvg speedWind from/ knotsBaromVisibWave heightAir tempDewpointWater temp
2018-Apr-20 00:37N 28°07' W 016°14'316.8
2018-Apr-20 00:25N 28°10' W 016°12'716.8
2018-Apr-20 00:00N 28°15' W 016°07'816.7
2018-Apr-19 23:30N 28°21' W 016°00'916.9
2018-Apr-19 23:00N 28°28' W 015°54'816.8
2018-Apr-19 22:30N 28°34' W 015°48'816.2
2018-Apr-19 22:00N 28°40' W 015°41'916.8
2018-Apr-19 21:30N 28°45' W 015°33'816.9
2018-Apr-19 21:00N 28°50' W 015°26'816.6
2018-Apr-19 20:30N 28°55' W 015°18'11516.9
2018-Apr-19 13:43N 30°05' W 013°34'2214.9
2018-Apr-19 12:12N 30°20' W 013°15'316.7
2018-Apr-19 12:00N 30°24' W 013°14'2416.9
2018-Apr-19 10:36N 30°46' W 013°06'217.7
2018-Apr-19 10:28N 30°49' W 013°05'917.6
2018-Apr-19 09:57N 30°57' W 013°02'715.6
2018-Apr-19 09:30N 31°02' W 012°56'1216.7
2018-Apr-19 08:46N 31°06' W 012°42'416.4
2018-Apr-19 08:30N 31°07' W 012°38'816.8
2018-Apr-19 08:00N 31°09' W 012°28'1916.8
2018-Apr-19 06:51N 31°14' W 012°06'1616.1
2018-Apr-19 05:53N 31°19' W 011°49'817.3
2018-Apr-19 05:24N 31°27' W 011°46'1317.4
2018-Apr-19 04:38N 31°40' W 011°42'217.5
2018-Apr-19 04:30N 31°42' W 011°42'1217.5
2018-Apr-19 03:48N 31°54' W 011°38'2117.3
2018-Apr-19 02:35N 32°14' W 011°32'117.2
2018-Apr-19 02:30N 32°16' W 011°31'817.0
2018-Apr-19 02:00N 32°23' W 011°28'815.5
2018-Apr-19 01:30N 32°26' W 011°19'815.9
2018-Apr-19 01:00N 32°28' W 011°10'1015.0
2018-Apr-19 00:21N 32°36' W 011°04'617.4
2018-Apr-19 00:00N 32°42' W 011°02'917.1
2018-Apr-18 23:30N 32°50' W 010°59'815.3
2018-Apr-18 23:00N 32°56' W 010°53'816.3
2018-Apr-18 22:30N 32°59' W 010°44'816.2
2018-Apr-18 21:59N 33°03' W 010°35'816.4
2018-Apr-18 21:30N 33°06' W 010°27'816.4
2018-Apr-18 21:00N 33°09' W 010°18'1216.3
2018-Apr-18 20:15N 33°14' W 010°04'416.1
2018-Apr-18 20:00N 33°16' W 010°00'2516.1
2018-Apr-18 18:26N 33°27' W 009°33'715.5
2018-Apr-18 17:59N 33°34' W 009°30'1117.1
2018-Apr-18 17:20N 33°45' W 009°30'11215.3
2018-Apr-18 10:00N 34°51' W 007°40'916.5
2018-Apr-18 09:28N 34°58' W 007°33'816.7
2018-Apr-18 09:00N 35°03' W 007°27'916.8
2018-Apr-18 08:30N 35°10' W 007°20'9814.9
2018-Apr-18 01:55N 35°57' W 005°35'715.7
2018-Apr-18 01:30N 36°00' W 005°28'611.4
2018-Apr-18 01:00N 36°04' W 005°22'1 1.8
2018-Apr-18 00:30N 36°04' W 005°22'0 0.8
2018-Apr-18 00:00N 36°04' W 005°22'1 1.8
2018-Apr-17 23:30N 36°04' W 005°21'4 7.7
2018-Apr-17 23:00N 36°04' W 005°16'510.4
2018-Apr-17 22:30N 36°05' W 005°10'220 5.5
2018-Apr-16 06:41N 37°34' W 000°58'0 1.0
2018-Apr-16 06:27N 37°34' W 000°58'2 3.8
2018-Apr-16 05:56N 37°33' W 001°00'3 3.5
2018-Apr-16 05:01N 37°30' W 001°01'2 7.8
2018-Apr-16 04:49N 37°28' W 001°02'3 8.4
2018-Apr-16 04:30N 37°26' W 001°00'3 5.3
2018-Apr-16 04:00N 37°25' W 000°58'510.4
2018-Apr-16 03:30N 37°24' W 001°04'4 2.5
2018-Apr-16 02:04N 37°22' W 001°08'1 9.6
2018-Apr-16 01:59N 37°21' W 001°07'4 8.1
2018-Apr-16 01:30N 37°19' W 001°03'510.1
2018-Apr-16 01:00N 37°15' W 001°06'610.8
2018-Apr-16 00:25N 37°09' W 001°08'510.9
2018-Apr-15 23:58N 37°04' W 001°09'611.0
2018-Apr-15 23:24N 36°58' W 001°11'19710.5
2018-Apr-15 04:42N 36°01' W 005°06'312.4
2018-Apr-15 04:28N 36°01' W 005°09'612.7
2018-Apr-15 04:00N 35°60' W 005°17'4 7.5
2018-Apr-15 03:30N 36°03' W 005°19'2 3.2
2018-Apr-15 03:00N 36°02' W 005°17'3 6.5
2018-Apr-15 02:30N 35°60' W 005°20'510.3
2018-Apr-15 02:00N 35°58' W 005°26'1115.7
2018-Apr-15 01:19N 35°55' W 005°39'  
Track history (hours):
 
Tides and Currents Weather Stations Pressure Air Temp Water Temp Dewpoint Dewpoint Depression Visibility Wind Speed Wind Dir Waves Ship Positions

Yenisei River

Last reported at 2018-Apr-20 00:37 UTC. Time now 2018-Apr-24 10:50 UTC.
Position N 28°07' W 016°14'.

Length 288 m; draft 9.6 m.

Type: Ship. MMSI: 538005072.

Date/timePositionNaut miles runAvg speedWind from/ knotsBaromVisibWave heightAir tempDewpointWater temp
2018-Apr-20 00:37N 28°07' W 016°14'316.8
2018-Apr-20 00:25N 28°10' W 016°12'716.8
2018-Apr-20 00:00N 28°15' W 016°07'816.7
2018-Apr-19 23:30N 28°21' W 016°00'916.9
2018-Apr-19 23:00N 28°28' W 015°54'816.8
2018-Apr-19 22:30N 28°34' W 015°48'816.2
2018-Apr-19 22:00N 28°40' W 015°41'916.8
2018-Apr-19 21:30N 28°45' W 015°33'816.9
2018-Apr-19 21:00N 28°50' W 015°26'816.6
2018-Apr-19 20:30N 28°55' W 015°18'11516.9
2018-Apr-19 13:43N 30°05' W 013°34'2214.9
2018-Apr-19 12:12N 30°20' W 013°15'316.7
2018-Apr-19 12:00N 30°24' W 013°14'2416.9
2018-Apr-19 10:36N 30°46' W 013°06'217.7
2018-Apr-19 10:28N 30°49' W 013°05'917.6
2018-Apr-19 09:57N 30°57' W 013°02'715.6
2018-Apr-19 09:30N 31°02' W 012°56'1216.7
2018-Apr-19 08:46N 31°06' W 012°42'416.4
2018-Apr-19 08:30N 31°07' W 012°38'816.8
2018-Apr-19 08:00N 31°09' W 012°28'1916.8
2018-Apr-19 06:51N 31°14' W 012°06'1616.1
2018-Apr-19 05:53N 31°19' W 011°49'817.3
2018-Apr-19 05:24N 31°27' W 011°46'1317.4
2018-Apr-19 04:38N 31°40' W 011°42'217.5
2018-Apr-19 04:30N 31°42' W 011°42'1217.5
2018-Apr-19 03:48N 31°54' W 011°38'2117.3
2018-Apr-19 02:35N 32°14' W 011°32'117.2
2018-Apr-19 02:30N 32°16' W 011°31'817.0
2018-Apr-19 02:00N 32°23' W 011°28'815.5
2018-Apr-19 01:30N 32°26' W 011°19'815.9
2018-Apr-19 01:00N 32°28' W 011°10'1015.0
2018-Apr-19 00:21N 32°36' W 011°04'617.4
2018-Apr-19 00:00N 32°42' W 011°02'917.1
2018-Apr-18 23:30N 32°50' W 010°59'815.3
2018-Apr-18 23:00N 32°56' W 010°53'816.3
2018-Apr-18 22:30N 32°59' W 010°44'816.2
2018-Apr-18 21:59N 33°03' W 010°35'816.4
2018-Apr-18 21:30N 33°06' W 010°27'816.4
2018-Apr-18 21:00N 33°09' W 010°18'1216.3
2018-Apr-18 20:15N 33°14' W 010°04'416.1
2018-Apr-18 20:00N 33°16' W 010°00'2516.1
2018-Apr-18 18:26N 33°27' W 009°33'715.5
2018-Apr-18 17:59N 33°34' W 009°30'1117.1
2018-Apr-18 17:20N 33°45' W 009°30'11215.3
2018-Apr-18 10:00N 34°51' W 007°40'916.5
2018-Apr-18 09:28N 34°58' W 007°33'816.7
2018-Apr-18 09:00N 35°03' W 007°27'916.8
2018-Apr-18 08:30N 35°10' W 007°20'9814.9
2018-Apr-18 01:55N 35°57' W 005°35'715.7
2018-Apr-18 01:30N 36°00' W 005°28'611.4
2018-Apr-18 01:00N 36°04' W 005°22'1 1.8
2018-Apr-18 00:30N 36°04' W 005°22'0 0.8
2018-Apr-18 00:00N 36°04' W 005°22'1 1.8
2018-Apr-17 23:30N 36°04' W 005°21'4 7.7
2018-Apr-17 23:00N 36°04' W 005°16'510.4
2018-Apr-17 22:30N 36°05' W 005°10'220 5.5
2018-Apr-16 06:41N 37°34' W 000°58'0 1.0
2018-Apr-16 06:27N 37°34' W 000°58'2 3.8
2018-Apr-16 05:56N 37°33' W 001°00'3 3.5
2018-Apr-16 05:01N 37°30' W 001°01'2 7.8
2018-Apr-16 04:49N 37°28' W 001°02'3 8.4
2018-Apr-16 04:30N 37°26' W 001°00'3 5.3
2018-Apr-16 04:00N 37°25' W 000°58'510.4
2018-Apr-16 03:30N 37°24' W 001°04'4 2.5
2018-Apr-16 02:04N 37°22' W 001°08'1 9.6
2018-Apr-16 01:59N 37°21' W 001°07'4 8.1
2018-Apr-16 01:30N 37°19' W 001°03'510.1
2018-Apr-16 01:00N 37°15' W 001°06'610.8
2018-Apr-16 00:25N 37°09' W 001°08'510.9
2018-Apr-15 23:58N 37°04' W 001°09'611.0
2018-Apr-15 23:24N 36°58' W 001°11'19710.5
2018-Apr-15 04:42N 36°01' W 005°06'312.4
2018-Apr-15 04:28N 36°01' W 005°09'612.7
2018-Apr-15 04:00N 35°60' W 005°17'4 7.5
2018-Apr-15 03:30N 36°03' W 005°19'2 3.2
2018-Apr-15 03:00N 36°02' W 005°17'3 6.5
2018-Apr-15 02:30N 35°60' W 005°20'510.3
2018-Apr-15 02:00N 35°58' W 005°26'1115.7
2018-Apr-15 01:19N 35°55' W 005°39'  

Dump ship's entire track history